createdAt,value
2024-05-09T00:00:40.753Z,95.40
2024-05-09T00:01:39.308Z,95.54
2024-05-09T00:02:39.319Z,95.54
2024-05-09T00:03:39.257Z,95.54
2024-05-09T00:04:39.293Z,95.65
2024-05-09T00:05:39.307Z,95.65
2024-05-09T00:06:39.216Z,95.65
2024-05-09T00:07:39.211Z,95.65
2024-05-09T00:08:39.215Z,95.65
2024-05-09T00:09:39.174Z,95.65
2024-05-09T00:10:40.397Z,95.65
2024-05-09T00:11:39.179Z,95.65
2024-05-09T00:12:39.134Z,95.79
2024-05-09T00:13:39.124Z,95.79
2024-05-09T00:14:39.190Z,95.79
2024-05-09T00:15:39.180Z,95.79
2024-05-09T00:16:39.087Z,95.79
2024-05-09T00:17:39.384Z,95.79
2024-05-09T00:18:39.139Z,95.90
2024-05-09T00:19:39.289Z,95.90
2024-05-09T00:20:41.046Z,95.90
2024-05-09T00:21:39.016Z,95.90
2024-05-09T00:22:39.010Z,95.90
2024-05-09T00:23:39.081Z,95.90
2024-05-09T00:24:38.995Z,95.90
2024-05-09T00:25:38.993Z,95.90
2024-05-09T00:26:39.005Z,95.90
2024-05-09T00:27:38.941Z,95.90
2024-05-09T00:28:38.924Z,95.90
2024-05-09T00:29:38.978Z,96.00
2024-05-09T00:30:38.938Z,95.94
2024-05-09T00:31:38.885Z,95.94
2024-05-09T00:32:39.037Z,95.94
2024-05-09T00:33:39.135Z,95.84
2024-05-09T00:34:38.860Z,95.84
2024-05-09T00:35:39.265Z,95.84
2024-05-09T00:36:38.815Z,95.84
2024-05-09T00:37:38.838Z,95.84
2024-05-09T00:38:38.882Z,95.74
2024-05-09T00:39:38.784Z,95.74
2024-05-09T00:40:41.424Z,95.89
2024-05-09T00:41:38.867Z,95.89
2024-05-09T00:42:38.743Z,95.89
2024-05-09T00:43:38.744Z,95.89
2024-05-09T00:44:38.802Z,95.89
2024-05-09T00:45:38.730Z,95.89
2024-05-09T00:46:38.696Z,95.78
2024-05-09T00:47:38.812Z,95.78
2024-05-09T00:48:38.827Z,95.83
2024-05-09T00:49:38.813Z,95.83
2024-05-09T00:50:38.981Z,95.83
2024-05-09T00:51:38.620Z,95.93
2024-05-09T00:52:38.616Z,95.83
2024-05-09T00:53:38.751Z,95.83
2024-05-09T00:54:38.570Z,95.83
2024-05-09T00:55:38.571Z,95.93
2024-05-09T00:56:38.619Z,95.93
2024-05-09T00:57:38.536Z,95.93
2024-05-09T00:58:38.514Z,95.93
2024-05-09T00:59:38.625Z,95.93
2024-05-09T01:00:40.584Z,95.93
2024-05-09T01:01:38.603Z,95.93
2024-05-09T01:02:38.628Z,95.93
2024-05-09T01:03:38.819Z,95.83
2024-05-09T01:04:38.514Z,95.83
2024-05-09T01:05:38.444Z,95.72
2024-05-09T01:06:38.404Z,95.87
2024-05-09T01:07:38.403Z,95.87
2024-05-09T01:08:38.504Z,95.87
2024-05-09T01:09:38.380Z,95.87
2024-05-09T01:10:38.445Z,95.87
2024-05-09T01:11:38.439Z,95.87
2024-05-09T01:12:38.423Z,95.87
2024-05-09T01:13:38.326Z,95.77
2024-05-09T01:14:38.360Z,95.77
2024-05-09T01:15:38.306Z,95.67
2024-05-09T01:16:38.291Z,95.71
2024-05-09T01:17:38.451Z,95.71
2024-05-09T01:18:38.389Z,95.71
2024-05-09T01:19:38.339Z,95.81
2024-05-09T01:20:42.312Z,95.81
2024-05-09T01:21:39.221Z,95.71
2024-05-09T01:22:38.226Z,95.71
2024-05-09T01:23:38.338Z,95.71
2024-05-09T01:24:38.177Z,95.61
2024-05-09T01:25:38.276Z,95.50
2024-05-09T01:26:38.190Z,95.71
2024-05-09T01:27:38.157Z,95.81
2024-05-09T01:28:38.129Z,95.81
2024-05-09T01:29:38.174Z,95.81
2024-05-09T01:30:38.675Z,95.81
2024-05-09T01:31:38.172Z,95.81
2024-05-09T01:32:38.274Z,95.71
2024-05-09T01:33:38.535Z,95.71
2024-05-09T01:34:38.059Z,95.65
2024-05-09T01:35:38.178Z,95.65
2024-05-09T01:36:38.031Z,95.55
2024-05-09T01:37:38.012Z,95.65
2024-05-09T01:38:38.068Z,95.75
2024-05-09T01:39:37.986Z,95.65
2024-05-09T01:40:40.049Z,95.65
2024-05-09T01:41:38.015Z,95.55
2024-05-09T01:42:37.938Z,95.55
2024-05-09T01:43:37.942Z,95.55
2024-05-09T01:44:38.020Z,95.59
2024-05-09T01:45:37.899Z,95.59
2024-05-09T01:46:37.920Z,95.70
2024-05-09T01:47:38.096Z,95.70
2024-05-09T01:48:37.925Z,95.70
2024-05-09T01:49:37.891Z,95.80
2024-05-09T01:50:41.183Z,95.70
2024-05-09T01:51:38.841Z,95.70
2024-05-09T01:52:37.809Z,95.80
2024-05-09T01:53:37.834Z,95.80
2024-05-09T01:54:37.782Z,95.80
2024-05-09T01:55:37.790Z,95.90
2024-05-09T01:56:37.802Z,95.90
2024-05-09T01:57:37.750Z,95.95
2024-05-09T01:58:37.741Z,95.95
2024-05-09T01:59:37.782Z,96.05
2024-05-09T02:00:41.345Z,96.05
2024-05-09T02:01:55.822Z,95.95
2024-05-09T02:02:38.777Z,95.95
2024-05-09T02:03:37.830Z,95.95
2024-05-09T02:04:37.740Z,96.05
2024-05-09T02:05:37.846Z,96.05
2024-05-09T02:06:37.622Z,96.15
2024-05-09T02:07:37.631Z,96.15
2024-05-09T02:08:37.643Z,96.15
2024-05-09T02:09:37.606Z,96.21
2024-05-09T02:10:37.586Z,96.15
2024-05-09T02:11:37.621Z,96.05
2024-05-09T02:12:37.543Z,96.05
2024-05-09T02:13:37.532Z,95.95
2024-05-09T02:14:37.704Z,95.95
2024-05-09T02:15:37.506Z,96.05
2024-05-09T02:16:37.482Z,96.05
2024-05-09T02:17:37.750Z,96.05
2024-05-09T02:18:37.512Z,96.05
2024-05-09T02:19:37.572Z,96.05
2024-05-09T02:20:37.513Z,95.95
2024-05-09T02:21:37.463Z,95.84
2024-05-09T02:22:37.463Z,95.84
2024-05-09T02:23:37.531Z,95.74
2024-05-09T02:24:37.489Z,95.78
2024-05-09T02:25:37.419Z,95.68
2024-05-09T02:26:37.398Z,95.58
2024-05-09T02:27:37.357Z,95.58
2024-05-09T02:28:37.347Z,95.52
2024-05-09T02:29:37.607Z,95.62
2024-05-09T02:30:40.723Z,95.52
2024-05-09T02:31:37.333Z,95.62
2024-05-09T02:32:37.431Z,95.83
2024-05-09T02:33:37.746Z,95.93
2024-05-09T02:34:37.311Z,95.93
2024-05-09T02:35:37.298Z,95.93
2024-05-09T02:36:37.239Z,95.93
2024-05-09T02:37:37.232Z,95.93
2024-05-09T02:38:37.402Z,95.93
2024-05-09T02:39:37.213Z,95.93
2024-05-09T02:40:39.178Z,95.93
2024-05-09T02:41:37.216Z,95.83
2024-05-09T02:42:37.166Z,95.87
2024-05-09T02:43:37.191Z,95.77
2024-05-09T02:44:37.191Z,95.77
2024-05-09T02:45:37.138Z,95.77
2024-05-09T02:46:37.129Z,95.77
2024-05-09T02:47:37.382Z,95.87
2024-05-09T02:48:37.431Z,95.87
2024-05-09T02:49:37.391Z,95.98
2024-05-09T02:50:39.497Z,95.92
2024-05-09T02:51:37.070Z,95.98
2024-05-09T02:52:37.054Z,96.08
2024-05-09T02:53:37.270Z,96.02
2024-05-09T02:54:37.010Z,96.18
2024-05-09T02:55:37.046Z,96.18
2024-05-09T02:56:37.102Z,96.08
2024-05-09T02:57:36.992Z,96.18
2024-05-09T02:58:36.967Z,96.18
2024-05-09T02:59:37.020Z,96.23
2024-05-09T03:00:40.416Z,96.12
2024-05-09T03:01:38.052Z,96.12
2024-05-09T03:02:37.074Z,96.02
2024-05-09T03:03:37.215Z,96.02
2024-05-09T03:04:37.083Z,96.02
2024-05-09T03:05:37.314Z,96.02
2024-05-09T03:06:36.874Z,95.92
2024-05-09T03:07:36.877Z,95.92
2024-05-09T03:08:36.909Z,96.02
2024-05-09T03:09:36.845Z,96.02
2024-05-09T03:10:38.661Z,95.92
2024-05-09T03:11:36.947Z,95.92
2024-05-09T03:12:39.035Z,95.81
2024-05-09T03:13:36.786Z,95.71
2024-05-09T03:14:36.795Z,95.71
2024-05-09T03:15:37.034Z,95.81
2024-05-09T03:16:36.741Z,95.71
2024-05-09T03:17:37.124Z,95.71
2024-05-09T03:18:36.810Z,95.81
2024-05-09T03:19:36.769Z,95.71
2024-05-09T03:20:37.299Z,95.81
2024-05-09T03:21:36.697Z,95.81
2024-05-09T03:22:36.661Z,95.81
2024-05-09T03:23:36.708Z,95.92
2024-05-09T03:24:36.655Z,95.92
2024-05-09T03:25:36.695Z,96.02
2024-05-09T03:26:36.687Z,96.02
2024-05-09T03:27:36.608Z,96.02
2024-05-09T03:28:36.605Z,95.92
2024-05-09T03:29:36.611Z,95.92
2024-05-09T03:30:41.568Z,95.92
2024-05-09T03:31:37.587Z,96.02
2024-05-09T03:32:36.716Z,96.12
2024-05-09T03:33:37.006Z,96.12
2024-05-09T03:34:36.529Z,96.12
2024-05-09T03:48:37.892Z,96.06
2024-05-09T03:49:37.832Z,95.96
2024-05-09T03:50:38.177Z,96.02
2024-05-09T03:51:37.796Z,96.23
2024-05-09T03:52:37.770Z,96.23
2024-05-09T03:53:37.798Z,96.23
2024-05-09T03:54:37.758Z,96.12
2024-05-09T03:55:37.730Z,96.23
2024-05-09T03:56:37.767Z,96.23
2024-05-09T03:57:37.732Z,96.23
2024-05-09T03:58:37.708Z,96.23
2024-05-09T03:59:37.768Z,96.23
2024-05-09T04:00:39.609Z,96.33
2024-05-09T04:01:37.727Z,96.33
2024-05-09T04:02:37.752Z,96.33
2024-05-09T04:03:37.768Z,96.33
2024-05-09T04:04:37.720Z,96.33
2024-05-09T04:05:37.743Z,96.33
2024-05-09T04:06:37.612Z,96.33
2024-05-09T04:07:37.614Z,96.33
2024-05-09T04:08:37.740Z,96.27
2024-05-09T04:09:37.563Z,96.27
2024-05-09T04:10:37.744Z,96.27
2024-05-09T04:11:37.742Z,96.27
2024-05-09T04:12:37.628Z,96.17
2024-05-09T04:13:37.516Z,96.17
2024-05-09T04:14:37.559Z,96.17
2024-05-09T04:15:37.503Z,96.21
2024-05-09T04:16:37.488Z,96.17
2024-05-09T04:17:37.765Z,96.31
2024-05-09T04:18:37.595Z,96.21
2024-05-09T04:19:37.449Z,96.21
2024-05-09T04:20:40.135Z,96.21
2024-05-09T04:21:37.428Z,96.21
2024-05-09T04:22:37.409Z,96.31
2024-05-09T04:23:37.587Z,96.31
2024-05-09T04:24:37.376Z,96.21
2024-05-09T04:25:37.911Z,96.31
2024-05-09T04:26:37.396Z,96.21
2024-05-09T04:27:37.356Z,96.31
2024-05-09T04:28:37.347Z,96.31
2024-05-09T04:29:37.493Z,96.31
2024-05-09T04:30:40.101Z,96.31
2024-05-09T04:31:37.285Z,96.31
2024-05-09T04:32:37.373Z,96.21
2024-05-09T04:33:37.434Z,96.21
2024-05-09T04:34:37.297Z,96.21
2024-05-09T04:35:37.309Z,96.31
2024-05-09T04:36:38.048Z,96.31
2024-05-09T04:37:37.187Z,96.31
2024-05-09T04:38:37.192Z,96.31
2024-05-09T04:39:37.178Z,96.31
2024-05-09T04:40:37.905Z,96.42
2024-05-09T04:41:37.236Z,96.37
2024-05-09T04:42:37.119Z,96.48
2024-05-09T04:43:37.128Z,96.48
2024-05-09T04:44:37.146Z,96.48
2024-05-09T04:45:37.115Z,96.48
2024-05-09T04:46:37.076Z,96.58
2024-05-09T04:47:37.201Z,96.58
2024-05-09T04:48:37.198Z,96.53
2024-05-09T04:49:37.114Z,96.53
2024-05-09T04:50:39.098Z,96.53
2024-05-09T04:51:37.023Z,96.53
2024-05-09T04:52:37.018Z,96.64
2024-05-09T04:53:37.173Z,96.53
2024-05-09T04:54:36.986Z,96.53
2024-05-09T04:55:37.207Z,96.53
2024-05-09T04:56:37.032Z,96.53
2024-05-09T04:57:36.932Z,96.53
2024-05-09T04:58:36.916Z,96.53
2024-05-09T04:59:36.996Z,96.59
2024-05-09T05:00:38.451Z,96.53
2024-05-09T05:01:36.999Z,96.53
2024-05-09T05:02:36.968Z,96.44
2024-05-09T05:03:37.051Z,96.44
2024-05-09T05:04:36.904Z,96.44
2024-05-09T05:05:36.882Z,96.44
2024-05-09T05:06:36.828Z,96.39
2024-05-09T05:07:36.809Z,96.49
2024-05-09T05:08:36.918Z,96.49
2024-05-09T05:09:36.788Z,96.39
2024-05-09T05:10:37.044Z,96.49
2024-05-09T05:11:36.927Z,96.49
2024-05-09T05:12:36.743Z,96.49
2024-05-09T05:13:40.119Z,96.39
2024-05-09T05:14:36.771Z,96.49
2024-05-09T05:15:36.704Z,96.49
2024-05-09T05:16:36.697Z,96.49
2024-05-09T05:17:36.877Z,96.49
2024-05-09T05:18:36.736Z,96.49
2024-05-09T05:19:36.818Z,96.45
2024-05-09T05:20:36.687Z,96.45
2024-05-09T05:21:36.627Z,96.55
2024-05-09T05:22:36.613Z,96.55
2024-05-09T05:23:36.646Z,96.45
2024-05-09T05:24:36.591Z,96.45
2024-05-09T05:25:36.577Z,96.45
2024-05-09T05:26:36.574Z,96.55
2024-05-09T05:27:36.542Z,96.55
2024-05-09T05:28:36.556Z,96.55
2024-05-09T05:29:36.751Z,96.55
2024-05-09T05:30:36.508Z,96.50
2024-05-09T05:31:36.517Z,96.50
2024-05-09T05:32:36.649Z,96.50
2024-05-09T05:33:36.744Z,96.50
2024-05-09T05:34:36.485Z,96.50
2024-05-09T05:35:36.536Z,96.50
2024-05-09T05:36:36.450Z,96.50
2024-05-09T05:37:36.440Z,96.50
2024-05-09T05:38:36.471Z,96.46
2024-05-09T05:39:36.390Z,96.46
2024-05-09T05:40:38.206Z,96.56
2024-05-09T05:41:36.456Z,96.46
2024-05-09T05:42:36.385Z,96.56
2024-05-09T05:43:36.338Z,96.56
2024-05-09T05:44:36.337Z,96.56
2024-05-09T05:45:36.424Z,96.52
2024-05-09T05:46:36.310Z,96.52
2024-05-09T05:47:36.469Z,96.52
2024-05-09T05:48:36.323Z,96.52
2024-05-09T05:49:36.323Z,96.52
2024-05-09T05:50:38.129Z,96.52
2024-05-09T05:51:36.243Z,96.58
2024-05-09T05:52:36.243Z,96.47
2024-05-09T05:53:36.422Z,96.58
2024-05-09T05:54:36.201Z,96.58
2024-05-09T05:55:36.214Z,96.53
2024-05-09T05:56:36.265Z,96.53
2024-05-09T05:57:36.182Z,96.53
2024-05-09T05:58:36.137Z,96.53
2024-05-09T05:59:36.228Z,96.53
2024-05-09T06:00:39.133Z,96.53
2024-05-09T06:01:36.163Z,96.53
2024-05-09T06:02:36.300Z,96.48
2024-05-09T06:03:36.181Z,96.48
2024-05-09T06:04:36.100Z,96.48
2024-05-09T06:05:36.151Z,96.48
2024-05-09T06:06:36.055Z,96.48
2024-05-09T06:07:36.049Z,96.39
2024-05-09T06:08:36.056Z,96.34
2024-05-09T06:09:36.009Z,96.34
2024-05-09T06:10:39.421Z,96.34
2024-05-09T06:11:36.109Z,96.34
2024-05-09T06:12:35.989Z,96.34
2024-05-09T06:13:35.971Z,96.30
2024-05-09T06:14:35.999Z,96.30
2024-05-09T06:15:35.960Z,96.19
2024-05-09T06:16:35.939Z,96.19
2024-05-09T06:17:36.139Z,96.09
2024-05-09T06:18:36.134Z,96.09
2024-05-09T06:19:36.031Z,96.04
2024-05-09T06:20:38.016Z,96.04
2024-05-09T06:21:35.863Z,95.94
2024-05-09T06:22:35.841Z,95.94
2024-05-09T06:23:35.910Z,95.94
2024-05-09T06:24:35.811Z,95.94
2024-05-09T06:25:36.165Z,95.79
2024-05-09T06:26:35.822Z,95.79
2024-05-09T06:27:35.775Z,95.79
2024-05-09T06:28:35.753Z,95.79
2024-05-09T06:29:35.786Z,95.79
2024-05-09T06:30:39.687Z,95.79
2024-05-09T06:31:36.734Z,95.69
2024-05-09T06:32:35.816Z,95.65
2024-05-09T06:33:36.048Z,95.54
2024-05-09T06:34:35.930Z,95.34
2024-05-09T06:35:36.103Z,95.14
2024-05-09T06:36:35.713Z,94.73
2024-05-09T06:37:35.687Z,94.52
2024-05-09T06:38:35.760Z,94.52
2024-05-09T06:39:35.630Z,94.48
2024-05-09T06:40:38.624Z,94.37
2024-05-09T06:41:35.622Z,94.48
2024-05-09T06:42:35.584Z,94.37
2024-05-09T06:43:35.570Z,94.27
2024-05-09T06:44:35.665Z,94.23
2024-05-09T06:45:35.541Z,94.23
2024-05-09T06:46:35.516Z,94.12
2024-05-09T06:47:35.644Z,94.12
2024-05-09T06:48:35.672Z,94.02
2024-05-09T06:49:35.544Z,93.92
2024-05-09T06:50:38.096Z,93.57
2024-05-09T06:51:35.453Z,93.37
2024-05-09T06:52:35.442Z,93.26
2024-05-09T06:53:35.619Z,93.06
2024-05-09T06:54:35.440Z,92.96
2024-05-09T06:55:35.407Z,92.85
2024-05-09T06:56:35.558Z,92.71
2024-05-09T06:57:35.924Z,92.60
2024-05-09T06:58:35.381Z,92.50
2024-05-09T06:59:35.464Z,92.30
2024-05-09T07:00:39.362Z,92.15
2024-05-09T07:01:36.364Z,92.15
2024-05-09T07:02:35.409Z,92.15
2024-05-09T07:03:35.449Z,92.05
2024-05-09T07:04:35.468Z,91.74
2024-05-09T07:05:35.355Z,91.50
2024-05-09T07:06:35.258Z,91.50
2024-05-09T07:07:35.267Z,91.50
2024-05-09T07:08:35.353Z,91.46
2024-05-09T07:09:35.261Z,91.35
2024-05-09T07:10:36.316Z,91.05
2024-05-09T07:11:35.310Z,90.84
2024-05-09T07:12:35.280Z,90.74
2024-05-09T07:13:35.178Z,90.64
2024-05-09T07:14:36.956Z,90.59
2024-05-09T07:15:35.164Z,90.49
2024-05-09T07:16:35.140Z,90.49
2024-05-09T07:17:35.214Z,90.39
2024-05-09T07:18:35.412Z,90.29
2024-05-09T07:19:35.317Z,90.14
2024-05-09T07:20:35.377Z,89.32
2024-05-09T07:21:35.067Z,88.71
2024-05-09T07:22:35.057Z,87.29
2024-05-09T07:23:35.177Z,86.83
2024-05-09T07:24:35.025Z,86.94
2024-05-09T07:25:35.009Z,87.14
2024-05-09T07:26:35.128Z,87.30
2024-05-09T07:27:35.014Z,87.30
2024-05-09T07:28:34.977Z,87.41
2024-05-09T07:29:37.793Z,87.41
2024-05-09T07:30:35.371Z,86.39
2024-05-09T07:31:34.953Z,86.24
2024-05-09T07:32:35.064Z,85.22
2024-05-09T07:33:34.949Z,84.82
2024-05-09T07:34:35.093Z,84.92
2024-05-09T07:35:35.027Z,84.51
2024-05-09T07:36:34.865Z,84.67
2024-05-09T07:37:34.881Z,84.67
2024-05-09T07:38:34.978Z,84.37
2024-05-09T07:39:34.820Z,83.86
2024-05-09T07:40:36.751Z,83.35
2024-05-09T07:41:34.830Z,82.09
2024-05-09T07:42:34.795Z,82.60
2024-05-09T07:43:34.777Z,82.60
2024-05-09T07:44:34.830Z,82.40
2024-05-09T07:47:36.461Z,81.24
2024-05-09T07:48:57.740Z,81.13
2024-05-09T07:50:34.400Z,81.54
2024-05-09T07:52:23.835Z,81.10
2024-05-09T07:53:14.137Z,81.30
2024-05-09T07:53:33.266Z,80.29
2024-05-09T07:53:42.753Z,79.63
2024-05-09T07:54:35.793Z,79.74
2024-05-09T07:55:34.735Z,79.43
2024-05-09T07:56:35.019Z,80.21
2024-05-09T07:57:34.681Z,79.50
2024-05-09T07:58:34.582Z,79.39
2024-05-09T07:59:37.871Z,78.78
2024-05-09T08:00:34.717Z,79.19
2024-05-09T08:01:34.614Z,78.17
2024-05-09T08:02:34.607Z,76.92
2024-05-09T08:03:34.921Z,76.92
2024-05-09T08:04:34.586Z,77.02
2024-05-09T08:05:34.775Z,77.33
2024-05-09T08:06:34.548Z,77.63
2024-05-09T08:07:34.462Z,76.68
2024-05-09T08:08:34.464Z,76.48
2024-05-09T08:09:36.115Z,76.78
2024-05-09T08:10:34.473Z,76.48
2024-05-09T08:11:34.460Z,76.14
2024-05-09T08:12:34.442Z,75.83
2024-05-09T08:13:34.392Z,75.22
2024-05-09T08:14:34.370Z,76.03
2024-05-09T08:15:34.413Z,75.02
2024-05-09T08:16:34.390Z,75.02
2024-05-09T08:17:34.400Z,75.19
2024-05-09T08:18:34.458Z,74.38
2024-05-09T08:19:34.341Z,73.66
2024-05-09T08:20:35.466Z,73.26
2024-05-09T08:21:34.301Z,73.87
2024-05-09T08:22:34.259Z,73.87
2024-05-09T08:23:34.253Z,72.41
2024-05-09T08:24:34.271Z,72.52
2024-05-09T08:25:34.263Z,72.52
2024-05-09T08:26:34.218Z,72.21
2024-05-09T08:27:34.275Z,71.97
2024-05-09T08:28:34.189Z,72.38
2024-05-09T08:29:34.180Z,73.19
2024-05-09T08:30:37.279Z,73.39
2024-05-09T08:31:34.328Z,72.04
2024-05-09T08:32:34.260Z,71.84
2024-05-09T08:33:34.259Z,71.64
2024-05-09T08:34:34.238Z,71.44
2024-05-09T08:35:34.322Z,71.23
2024-05-09T08:36:34.164Z,70.89
2024-05-09T08:37:38.706Z,70.29
2024-05-09T08:38:35.093Z,70.79
2024-05-09T08:39:34.100Z,69.88
2024-05-09T08:40:36.320Z,70.45
2024-05-09T08:41:34.023Z,69.74
2024-05-09T08:42:33.998Z,68.63
2024-05-09T08:43:33.993Z,66.50
2024-05-09T08:44:33.971Z,67.32
2024-05-09T08:45:33.977Z,65.50
2024-05-09T08:46:33.962Z,65.67
2024-05-09T08:47:34.294Z,65.47
2024-05-09T08:48:34.078Z,64.45
2024-05-09T08:49:33.982Z,64.15
2024-05-09T08:50:38.824Z,63.10
2024-05-09T08:51:34.951Z,64.12
2024-05-09T08:52:33.895Z,63.92
2024-05-09T08:53:33.882Z,64.62
2024-05-09T08:54:33.890Z,64.42
2024-05-09T08:55:33.871Z,63.51
2024-05-09T08:56:33.836Z,65.03
2024-05-09T08:57:33.904Z,64.73
2024-05-09T08:58:33.790Z,64.52
2024-05-09T08:59:33.801Z,64.52
2024-05-09T09:00:37.122Z,62.90
2024-05-09T09:01:33.829Z,62.67
2024-05-09T09:02:33.892Z,62.98
2024-05-09T09:03:34.236Z,64.09
2024-05-09T09:04:33.789Z,64.09
2024-05-09T09:05:34.146Z,65.00
2024-05-09T09:06:33.732Z,65.20
2024-05-09T09:07:33.732Z,65.10
2024-05-09T09:08:33.656Z,65.00
2024-05-09T09:09:33.727Z,64.09
2024-05-09T09:10:33.933Z,64.06
2024-05-09T09:11:33.656Z,63.96
2024-05-09T09:12:33.650Z,63.76
2024-05-09T09:13:33.615Z,64.36
2024-05-09T09:14:33.587Z,64.26
2024-05-09T09:15:33.614Z,63.96
2024-05-09T09:16:33.602Z,63.96
2024-05-09T09:17:33.692Z,62.64
2024-05-09T09:18:33.660Z,62.74
2024-05-09T09:19:33.729Z,62.64
2024-05-09T09:20:36.350Z,63.55
2024-05-09T09:21:33.518Z,62.24
2024-05-09T09:22:33.475Z,62.14
2024-05-09T09:23:33.482Z,62.14
2024-05-09T09:24:33.493Z,61.94
2024-05-09T09:25:33.432Z,63.15
2024-05-09T09:26:33.414Z,62.74
2024-05-09T09:27:33.495Z,62.31
2024-05-09T09:28:33.395Z,62.71
2024-05-09T09:29:33.384Z,64.53
2024-05-09T09:30:37.347Z,63.62
2024-05-09T09:31:33.540Z,64.94
2024-05-09T09:32:33.446Z,65.54
2024-05-09T09:48:17.927Z,56.92
2024-05-09T09:49:17.958Z,57.03
2024-05-09T09:50:24.038Z,57.30
2024-05-09T09:51:18.803Z,57.70
2024-05-09T09:52:17.985Z,57.90
2024-05-09T09:53:17.763Z,56.70
2024-05-09T09:54:17.785Z,57.78
2024-05-09T09:55:17.799Z,57.68
2024-05-09T09:56:17.739Z,58.18
2024-05-09T09:57:17.711Z,56.95
2024-05-09T09:58:17.960Z,56.84
2024-05-09T09:59:17.717Z,55.83
2024-05-09T10:00:24.438Z,54.20
2024-05-09T10:01:18.762Z,54.40
2024-05-09T10:02:17.860Z,55.71
2024-05-09T10:03:17.682Z,54.20
2024-05-09T10:04:17.878Z,55.21
2024-05-09T10:05:17.707Z,54.30
2024-05-09T10:06:17.649Z,54.10
2024-05-09T10:07:17.664Z,54.30
2024-05-09T10:08:17.589Z,54.80
2024-05-09T10:09:17.578Z,55.99
2024-05-09T10:10:23.125Z,55.08
2024-05-09T10:11:18.571Z,54.88
2024-05-09T10:12:17.546Z,54.08
2024-05-09T10:13:17.566Z,54.65
2024-05-09T10:14:17.513Z,54.96
2024-05-09T10:15:17.489Z,54.55
2024-05-09T10:16:17.592Z,54.25
2024-05-09T10:17:17.516Z,53.22
2024-05-09T10:18:17.576Z,53.52
2024-05-09T10:19:24.537Z,54.93
2024-05-09T10:20:21.968Z,56.30
2024-05-09T10:21:18.422Z,55.60
2024-05-09T10:22:17.585Z,55.80
2024-05-09T10:23:17.391Z,53.00
2024-05-09T10:24:17.384Z,53.07
2024-05-09T10:25:17.471Z,52.37
2024-05-09T10:26:17.358Z,53.17
2024-05-09T10:27:17.347Z,53.07
2024-05-09T10:28:17.379Z,51.97
2024-05-09T10:29:17.319Z,52.47
2024-05-09T10:30:25.445Z,52.26
2024-05-09T10:31:18.305Z,52.57
2024-05-09T10:32:17.312Z,52.04
2024-05-09T10:33:17.422Z,51.34
2024-05-09T10:34:17.387Z,51.74
2024-05-09T10:35:17.267Z,52.64
2024-05-09T10:36:17.247Z,52.84
2024-05-09T10:37:17.291Z,53.62
2024-05-09T10:38:17.210Z,52.62
2024-05-09T10:39:17.177Z,52.62
2024-05-09T10:40:23.521Z,51.72
2024-05-09T10:41:18.159Z,51.89
2024-05-09T10:42:17.187Z,51.19
2024-05-09T10:43:17.447Z,50.79
2024-05-09T10:44:17.141Z,50.16
2024-05-09T10:45:17.108Z,50.87
2024-05-09T10:46:17.156Z,51.67
2024-05-09T10:47:17.136Z,51.46
2024-05-09T10:48:17.120Z,51.07
2024-05-09T10:49:17.185Z,51.17
2024-05-09T10:50:22.677Z,50.24
2024-05-09T10:51:18.047Z,48.84
2024-05-09T10:52:17.029Z,49.74
2024-05-09T10:53:17.007Z,50.44
2024-05-09T10:54:16.991Z,49.54
2024-05-09T10:55:17.047Z,49.62
2024-05-09T10:56:17.322Z,50.32
2024-05-09T10:57:16.952Z,49.32
2024-05-09T10:58:17.123Z,49.72
2024-05-09T10:59:16.932Z,49.22
2024-05-09T11:00:27.041Z,48.61
2024-05-09T11:01:17.981Z,47.11
2024-05-09T11:02:17.054Z,46.81
2024-05-09T11:03:16.952Z,48.52
2024-05-09T11:04:17.221Z,50.39
2024-05-09T11:05:17.143Z,50.20
2024-05-09T11:06:16.858Z,49.69
2024-05-09T11:07:16.992Z,49.69
2024-05-09T11:08:16.817Z,48.67
2024-05-09T11:09:16.825Z,48.77
2024-05-09T11:10:24.406Z,47.97
2024-05-09T11:11:17.827Z,47.67
2024-05-09T11:12:16.766Z,46.95
2024-05-09T11:13:16.763Z,46.95
2024-05-09T11:14:16.799Z,47.15
2024-05-09T11:15:16.741Z,46.95
2024-05-09T11:16:17.140Z,48.45
2024-05-09T11:17:16.720Z,48.94
2024-05-09T11:18:16.891Z,44.05
2024-05-09T11:19:16.852Z,47.45
2024-05-09T11:20:22.986Z,48.75
2024-05-09T11:21:17.647Z,44.67
2024-05-09T11:22:16.725Z,44.97
2024-05-09T11:23:16.623Z,48.67
2024-05-09T11:24:16.618Z,48.25
2024-05-09T11:25:16.702Z,44.57
2024-05-09T11:26:16.583Z,42.79
2024-05-09T11:27:16.590Z,45.09
2024-05-09T11:28:16.650Z,46.47
2024-05-09T11:29:19.199Z,45.17
2024-05-09T11:30:23.814Z,44.97
2024-05-09T11:31:17.899Z,45.05
2024-05-09T11:32:16.685Z,43.95
2024-05-09T11:33:16.620Z,46.75
2024-05-09T11:34:16.677Z,48.05
2024-05-09T11:35:16.496Z,45.95
2024-05-09T11:36:16.487Z,44.55
2024-05-09T11:37:16.574Z,44.95
2024-05-09T11:38:16.413Z,46.92
2024-05-09T11:39:16.440Z,49.32
2024-05-09T11:40:21.551Z,49.52
2024-05-09T11:41:17.373Z,47.85
2024-05-09T11:42:16.380Z,46.75
2024-05-09T11:43:16.616Z,48.25
2024-05-09T11:44:16.395Z,48.75
2024-05-09T11:45:16.494Z,47.25
2024-05-09T11:46:16.532Z,47.13
2024-05-09T11:47:16.455Z,45.03
2024-05-09T11:48:16.518Z,46.33
2024-05-09T11:49:16.493Z,44.61
2024-05-09T11:50:26.412Z,46.80
2024-05-09T11:51:17.243Z,47.30
2024-05-09T11:52:16.404Z,47.58
2024-05-09T11:53:16.246Z,47.28
2024-05-09T11:54:16.209Z,46.66
2024-05-09T11:55:16.368Z,46.56
2024-05-09T11:56:16.191Z,45.84
2024-05-09T11:57:16.178Z,46.24
2024-05-09T11:58:16.210Z,44.65
2024-05-09T11:59:16.158Z,43.45
2024-05-09T12:00:24.538Z,45.14
2024-05-09T12:01:17.253Z,43.75
2024-05-09T12:02:16.273Z,39.52
2024-05-09T12:03:16.107Z,41.03
2024-05-09T12:04:16.339Z,45.90
2024-05-09T12:05:16.344Z,47.10
2024-05-09T12:06:16.062Z,47.28
2024-05-09T12:07:16.132Z,46.86
2024-05-09T12:08:16.016Z,47.66
2024-05-09T12:09:16.041Z,46.84
2024-05-09T12:10:19.833Z,46.01
2024-05-09T12:11:17.075Z,45.32
2024-05-09T12:12:16.030Z,46.09
2024-05-09T12:13:16.031Z,44.10
2024-05-09T12:14:15.930Z,43.60
2024-05-09T12:15:15.984Z,45.18
2024-05-09T12:16:16.235Z,45.37
2024-05-09T12:17:15.956Z,44.38
2024-05-09T12:18:15.928Z,44.88
2024-05-09T12:19:15.998Z,45.75
2024-05-09T12:20:21.564Z,45.55
2024-05-09T12:21:16.853Z,45.14
2024-05-09T12:22:15.951Z,45.23
2024-05-09T12:23:15.842Z,44.12
2024-05-09T12:24:18.475Z,45.21
2024-05-09T12:25:16.043Z,43.72
2024-05-09T12:26:15.850Z,44.22
2024-05-09T12:27:15.791Z,44.22
2024-05-09T12:28:15.926Z,40.56
2024-05-09T12:29:15.768Z,39.11
2024-05-09T12:30:20.942Z,41.61
2024-05-09T12:31:16.795Z,44.38
2024-05-09T12:32:15.744Z,42.69
2024-05-09T12:33:15.892Z,45.55
2024-05-09T12:34:15.819Z,43.66
2024-05-09T12:35:15.747Z,43.59
2024-05-09T12:36:15.681Z,45.37
2024-05-09T12:37:15.740Z,41.99
2024-05-09T12:38:15.734Z,42.99
2024-05-09T12:39:15.613Z,45.67
2024-05-09T12:40:22.994Z,43.76
2024-05-09T12:41:16.670Z,45.95
2024-05-09T12:42:26.411Z,44.24
2024-05-09T12:43:16.580Z,41.85
2024-05-09T12:44:15.567Z,44.84
2024-05-09T12:45:15.629Z,44.24
2024-05-09T12:46:15.580Z,44.54
2024-05-09T12:47:15.586Z,43.13
2024-05-09T12:48:15.607Z,39.65
2024-05-09T12:49:17.331Z,39.25
2024-05-09T12:50:22.419Z,41.85
2024-05-09T12:51:16.513Z,45.11
2024-05-09T12:52:15.545Z,44.71
2024-05-09T12:53:15.458Z,43.52
2024-05-09T12:54:15.445Z,43.60
2024-05-09T12:55:15.549Z,43.20
2024-05-09T12:56:15.435Z,42.58
2024-05-09T12:57:15.485Z,39.53
2024-05-09T12:58:15.623Z,41.42
2024-05-09T12:59:15.393Z,42.31
2024-05-09T13:00:23.518Z,40.24
2024-05-09T13:01:16.429Z,37.68
2024-05-09T13:02:15.799Z,37.70
2024-05-09T13:03:15.604Z,39.31
2024-05-09T13:04:15.551Z,40.88
2024-05-09T13:05:15.499Z,41.77
2024-05-09T13:06:15.307Z,42.67
2024-05-09T13:07:15.454Z,42.47
2024-05-09T13:08:15.294Z,45.83
2024-05-09T13:09:15.252Z,43.35
2024-05-09T13:10:23.046Z,44.04
2024-05-09T13:11:16.312Z,43.52
2024-05-09T13:12:15.203Z,44.12
2024-05-09T13:13:15.351Z,42.23
2024-05-09T13:14:15.173Z,40.74
2024-05-09T13:15:15.175Z,42.63
2024-05-09T13:16:15.200Z,45.11
2024-05-09T13:17:15.186Z,40.26
2024-05-09T13:18:15.163Z,39.69
2024-05-09T13:19:15.148Z,38.51
2024-05-09T13:20:23.000Z,43.41
2024-05-09T13:21:16.084Z,43.03
2024-05-09T13:22:15.116Z,46.14